Nearby METAR Reports

 

KOXC - Oxford/Waterbury, Connecticut, USA
Distance from station: SE 8mi, 12km
Updated: Thu, 20-Sep-2018 12:51pm EDT
Mostly cloudy
Mostly cloudy
 Wind from E
Wind: E 9 mph , 15 km/h
Temperature: 66°F , 19°C
Dew Point: 57°F , 14°C
Humidity: 73%
Barometer: 30.27 inHg , 1025.1 hPa
Clouds: Mostly cloudy
Visibility: 10 miles , 16 km
Cloud details: Partly cloudy 2200 ft
Mostly cloudy 4900 ft
2018/09/20 16:51 KOXC 201651Z 08008KT 340V150 10SM SCT022 BKN049 19/14 A3027 RMK AO2 SLP259 T01890139
KDXR - Danbury, Connecticut, USA
Distance from station: SW 19mi, 30km
Updated: Thu, 20-Sep-2018 12:53pm EDT
Overcast
Overcast
 Wind from E
Wind: E 6 mph , 9 km/h
Temperature: 68°F , 20°C
Dew Point: 55°F , 13°C
Humidity: 64%
Barometer: 30.26 inHg , 1024.7 hPa
Clouds: Overcast
Visibility: 10 miles , 16 km
Cloud details: Few Clouds 3900 ft
Overcast 5000 ft
2018/09/20 16:53 KDXR 201653Z 09005KT 10SM FEW039 OVC050 20/13 A3026 RMK AO2 SLP245 T02000128
 
KMMK - Meriden, Connecticut, USA
Distance from station: E 20mi, 33km
Updated: Thu, 20-Sep-2018 12:53pm EDT
Partly cloudy
Partly cloudy
 Wind from N
Wind: N 7 mph , 11 km/h
Temperature: 72°F , 22°C
Dew Point: 55°F , 13°C
Humidity: 57%
Barometer: 30.25 inHg , 1024.4 hPa
Clouds: Partly cloudy
Visibility: 10 miles , 16 km
Cloud details: Partly cloudy 2800 ft
2018/09/20 16:53 KMMK 201653Z AUTO 36006KT 10SM SCT028 22/13 A3025 RMK AO2 SLP240 T02170133
KBDR - Bridgeport, Connecticut, USA
Distance from station: S 27mi, 44km
Updated: Thu, 20-Sep-2018 12:52pm EDT
Mostly cloudy
Mostly cloudy
 Wind from E
Wind: E 9 mph , 15 km/h
Temperature: 72°F , 22°C
Dew Point: 55°F , 13°C
Humidity: 57%
Barometer: 30.24 inHg , 1024 hPa
Clouds: Mostly cloudy
Visibility: 10 miles , 16 km
Cloud details: Mostly cloudy 5500 ft
2018/09/20 16:52 KBDR 201652Z 09008KT 10SM BKN055 22/13 A3024 RMK AO2 SLP239 T02170133
 
KHVN - New Haven/Tweed, Connecticut, USA
Distance from station: SE 27mi, 44km
Updated: Thu, 20-Sep-2018 12:53pm EDT
Mostly cloudy
Mostly cloudy
 Wind from N
Wind: N 6 mph , 9 km/h
Temperature: 72°F , 22°C
Dew Point: 59°F , 15°C
Humidity: 65%
Barometer: 30.24 inHg , 1024 hPa
Clouds: Mostly cloudy
Visibility: 10 miles , 16 km
Cloud details: Partly cloudy 2500 ft
Mostly cloudy 5500 ft
2018/09/20 16:53 KHVN 201653Z 36005KT 10SM SCT025 BKN055 22/15 A3024 RMK AO2 SLP239 T02220150
KHFD - Hartford/Brainar, Connecticut, USA
Distance from station: ENE 32mi, 52km
Updated: Thu, 20-Sep-2018 12:53pm EDT
Clear
Clear
 Wind from N
Wind: N 9 mph , 15 km/h
Temperature: 70°F , 21°C
Dew Point: 55°F , 13°C
Humidity: 60%
Barometer: 30.24 inHg , 1024 hPa
Clouds: Clear
Visibility: 10 miles , 16 km
2018/09/20 16:53 KHFD 201653Z 01008KT 10SM CLR 21/13 A3024 RMK AO2 SLP241 T02110133
 
KPOU - Poughkeepsie, New York, USA
Distance from station: W 35mi, 56km
Updated: Thu, 20-Sep-2018 1:00pm EDT
Overcast
Overcast
 Wind from varies
Wind: varies 3 mph , 6 km/h
Temperature: 68°F , 20°C
Dew Point: 57°F , 14°C
Humidity: 69%
Barometer: 30.23 inHg , 1023.7 hPa
Clouds: Overcast
Visibility: 10 miles , 16 km
Cloud details: Few Clouds 2300 ft
Mostly cloudy 3600 ft
Overcast 5000 ft
2018/09/20 17:00 KPOU 201700Z VRB03KT 10SM FEW023 BKN036 OVC050 20/14 A3023 RMK AO2 T02000139
KBDL - Windsor Locks, Connecticut, USA
Distance from station: NE 38mi, 62km
Updated: Thu, 20-Sep-2018 1:06pm EDT
Mostly cloudy
Mostly cloudy
 Wind from N
Wind: N 6 mph , 9 km/h
Temperature: 68°F , 20°C
Dew Point: 55°F , 13°C
Humidity: 64%
Barometer: 30.25 inHg , 1024.4 hPa
Clouds: Mostly cloudy
Visibility: 10 miles , 16 km
Cloud details: Mostly cloudy 2600 ft
Mostly cloudy 3500 ft
2018/09/20 17:06 KBDL 201706Z 01005KT 10SM BKN026 BKN035 20/13 A3025 RMK AO2 T02000128
 
KSNC - Chester, Connecticut, USA
Distance from station: ESE 39mi, 63km
Updated: Thu, 20-Sep-2018 1:15pm EDT
Mostly cloudy
Mostly cloudy
 Wind from NE
Wind: NE 7 mph , 11 km/h
Temperature: 72°F , 22°C
Dew Point: 55°F , 13°C
Humidity: 57%
Barometer: 30.24 inHg , 1024 hPa
Clouds: Mostly cloudy
Visibility: 10 miles , 16 km
Cloud details: Partly cloudy 3200 ft
Mostly cloudy 3900 ft
2018/09/20 17:15 KSNC 201715Z AUTO 05006KT 10SM SCT032 BKN039 22/13 A3024 RMK AO2
KHPN - White Plains, New York, USA
Distance from station: SW 42mi, 67km
Updated: Thu, 20-Sep-2018 12:56pm EDT
Mostly cloudy
Mostly cloudy
 Wind from SE
Wind: SE 3 mph , 6 km/h
Temperature: 66°F , 19°C
Dew Point: 55°F , 13°C
Humidity: 68%
Barometer: 30.24 inHg , 1024 hPa
Clouds: Mostly cloudy
Visibility: 10 miles , 16 km
Cloud details: Few Clouds 2500 ft
Mostly cloudy 3700 ft
2018/09/20 16:56 KHPN 201656Z 13003KT 10SM FEW025 BKN037 19/13 A3024 RMK AO2 SLP238 T01940128
 
KSWF - Newburgh/Stewart, New York, USA
Distance from station: W 45mi, 72km
Updated: Thu, 20-Sep-2018 12:45pm EDT
Overcast
Overcast
 Wind from varies
Wind: varies 6 mph , 9 km/h
Temperature: 66°F , 19°C
Dew Point: 59°F , 15°C
Humidity: 78%
Barometer: 30.26 inHg , 1024.7 hPa
Clouds: Overcast
Visibility: 10 miles , 16 km
Cloud details: Few Clouds 1500 ft
Overcast 3000 ft
2018/09/20 16:45 KSWF 201645Z VRB05KT 10SM FEW015 OVC030 19/15 A3026
KBAF - Westfield, Massachusetts, USA
Distance from station: NNE 50mi, 80km
Updated: Thu, 20-Sep-2018 12:53pm EDT
Overcast
Overcast
 Wind from N
Wind: N 6 mph , 9 km/h
Temperature: 68°F , 20°C
Dew Point: 55°F , 13°C
Humidity: 64%
Barometer: 30.26 inHg , 1024.7 hPa
Clouds: Overcast
Visibility: 10 miles , 16 km
Cloud details: Overcast 2700 ft
2018/09/20 16:53 KBAF 201653Z 36005KT 10SM OVC027 20/13 A3026 RMK AO2 SLP245 T02000133